AKX5562 RJGG-RJTT
Flight info
| Callsign | AKX5562 |
|---|---|
| Flight time | N/A |
| Altitude | 21000 |
| Route | BOGON Y23 ARTIC Y71 XAC |
| Aircraft | B738/M-SDE2FGILORVWXY/L |
Departure
| Time | N/A |
|---|---|
| Airport | Chubu Centrair International Airport (RJGG) |
Arrival
| Time | 2026-05-06 13:43 |
|---|---|
| Airport | Tokyo Haneda International Airport (RJTT) |
| Time | Latitude | Longitude | Altitude | Speed | Heading |
|---|---|---|---|---|---|
| 2026-05-06 13:43 | 35.53663 | 139.79074 | 20 ft | 0 kts | 60° |
| 2026-05-06 14:01 | 35.53663 | 139.79073 | 20 ft | 0 kts | 60° |
| 2026-05-06 14:01 | 35.53656 | 139.79060 | 19 ft | 2 kts | 60° |
| 2026-05-06 14:01 | 35.53648 | 139.79042 | 21 ft | 2 kts | 60° |
| 2026-05-06 14:02 | 35.53640 | 139.79024 | 21 ft | 2 kts | 60° |
| 2026-05-06 14:02 | 35.53631 | 139.79006 | 20 ft | 2 kts | 51° |
| 2026-05-06 14:02 | 35.53619 | 139.78993 | 22 ft | 3 kts | 21° |
| 2026-05-06 14:02 | 35.53602 | 139.78989 | 19 ft | 2 kts | 349° |
| 2026-05-06 14:03 | 35.53599 | 139.78990 | 19 ft | 1 kts | 341° |
| 2026-05-06 14:03 | 35.53612 | 139.78982 | 21 ft | 2 kts | 328° |
| 2026-05-06 14:03 | 35.53631 | 139.78969 | 19 ft | 6 kts | 330° |
| 2026-05-06 14:03 | 35.53675 | 139.78938 | 19 ft | 7 kts | 330° |
| 2026-05-06 14:04 | 35.53718 | 139.78908 | 19 ft | 7 kts | 330° |
| 2026-05-06 14:04 | 35.53761 | 139.78877 | 19 ft | 7 kts | 329° |
| 2026-05-06 14:04 | 35.53804 | 139.78846 | 20 ft | 7 kts | 330° |
| 2026-05-06 14:04 | 35.53847 | 139.78816 | 20 ft | 7 kts | 330° |
| 2026-05-06 14:05 | 35.53891 | 139.78785 | 20 ft | 7 kts | 330° |
| 2026-05-06 14:05 | 35.53934 | 139.78754 | 20 ft | 7 kts | 329° |
| 2026-05-06 14:05 | 35.53978 | 139.78723 | 20 ft | 7 kts | 329° |
| 2026-05-06 14:05 | 35.54021 | 139.78692 | 20 ft | 7 kts | 329° |
| 2026-05-06 14:06 | 35.54064 | 139.78661 | 20 ft | 7 kts | 330° |
| 2026-05-06 14:06 | 35.54108 | 139.78630 | 20 ft | 7 kts | 330° |
| 2026-05-06 14:06 | 35.54152 | 139.78601 | 20 ft | 7 kts | 338° |
| 2026-05-06 14:06 | 35.54200 | 139.78605 | 23 ft | 7 kts | 25° |
| 2026-05-06 14:07 | 35.54233 | 139.78650 | 24 ft | 7 kts | 58° |
| 2026-05-06 14:07 | 35.54259 | 139.78703 | 26 ft | 7 kts | 59° |
| 2026-05-06 14:07 | 35.54284 | 139.78756 | 28 ft | 7 kts | 59° |
| 2026-05-06 14:07 | 35.54309 | 139.78809 | 30 ft | 7 kts | 60° |
| 2026-05-06 14:08 | 35.54334 | 139.78863 | 30 ft | 7 kts | 59° |
| 2026-05-06 14:08 | 35.54368 | 139.78933 | 35 ft | 6 kts | 59° |
| 2026-05-06 14:08 | 35.54414 | 139.79032 | 38 ft | 6 kts | 59° |
| 2026-05-06 14:08 | 35.54460 | 139.79129 | 36 ft | 6 kts | 60° |
| 2026-05-06 14:09 | 35.54506 | 139.79225 | 33 ft | 6 kts | 60° |
| 2026-05-06 14:09 | 35.54550 | 139.79321 | 29 ft | 6 kts | 59° |
| 2026-05-06 14:09 | 35.54596 | 139.79415 | 27 ft | 5 kts | 60° |
| 2026-05-06 14:09 | 35.54627 | 139.79481 | 25 ft | 4 kts | 60° |
| 2026-05-06 14:10 | 35.54669 | 139.79568 | 24 ft | 5 kts | 54° |
| 2026-05-06 14:10 | 35.54734 | 139.79587 | 26 ft | 5 kts | 340° |
| 2026-05-06 14:10 | 35.54776 | 139.79559 | 28 ft | 4 kts | 330° |
| 2026-05-06 14:10 | 35.54837 | 139.79516 | 27 ft | 4 kts | 330° |
| 2026-05-06 14:11 | 35.54891 | 139.79477 | 27 ft | 3 kts | 330° |
| 2026-05-06 14:11 | 35.54914 | 139.79461 | 32 ft | 1 kts | 330° |
| 2026-05-06 14:11 | 35.54946 | 139.79438 | 26 ft | 7 kts | 330° |
| 2026-05-06 14:11 | 35.54990 | 139.79408 | 29 ft | 7 kts | 330° |
| 2026-05-06 14:12 | 35.55033 | 139.79377 | 28 ft | 7 kts | 330° |
| 2026-05-06 14:12 | 35.55066 | 139.79332 | 27 ft | 7 kts | 288° |
| 2026-05-06 14:12 | 35.55062 | 139.79288 | 25 ft | 3 kts | 251° |
| 2026-05-06 14:12 | 35.55054 | 139.79263 | 30 ft | 3 kts | 243° |
| 2026-05-06 14:13 | 35.55043 | 139.79239 | 28 ft | 3 kts | 243° |
| 2026-05-06 14:13 | 35.55033 | 139.79214 | 27 ft | 3 kts | 243° |
| 2026-05-06 14:13 | 35.55034 | 139.79182 | 27 ft | 4 kts | 292° |
| 2026-05-06 14:13 | 35.55045 | 139.79157 | 27 ft | 3 kts | 303° |
| 2026-05-06 14:14 | 35.55061 | 139.79137 | 27 ft | 3 kts | 321° |
| 2026-05-06 14:14 | 35.55090 | 139.79113 | 27 ft | 7 kts | 327° |
| 2026-05-06 14:14 | 35.55126 | 139.79087 | 27 ft | 2 kts | 329° |
| 2026-05-06 14:14 | 35.55129 | 139.79085 | 27 ft | 3 kts | 329° |
| 2026-05-06 14:15 | 35.55155 | 139.79066 | 26 ft | 4 kts | 330° |
| 2026-05-06 14:15 | 35.55197 | 139.79037 | 28 ft | 7 kts | 330° |
| 2026-05-06 14:15 | 35.55239 | 139.79008 | 27 ft | 3 kts | 330° |
| 2026-05-06 14:15 | 35.55258 | 139.79003 | 27 ft | 0 kts | 9° |
| 2026-05-06 14:16 | 35.55270 | 139.79013 | 27 ft | 3 kts | 43° |
| 2026-05-06 14:16 | 35.55284 | 139.79036 | 27 ft | 3 kts | 57° |
| 2026-05-06 14:16 | 35.55297 | 139.79061 | 27 ft | 3 kts | 60° |
| 2026-05-06 14:16 | 35.55301 | 139.79069 | 27 ft | 0 kts | 60° |